Terminal Aerodrome Forecast
Issued by NWS Grand Forks, ND

Home | Current Version | Previous Version | Graphics & Text | Print | Product List | Glossary On
Versions: 1 2 3 4 5 6 7 8 9 10 11 12 13 14 15
000
FTUS43 KFGF 151100
TAFGFK
TAF
KGFK 151126Z 1512/1612 35020G30KT P6SM OVC010
      TEMPO 1512/1514 5SM -FZDZ
     FM151900 35024G30KT P6SM BKN015
     FM160100 34016KT P6SM BKN020=

USA.gov is the U.S. government's official web portal to all federal, state and local government web resources and services.